sensor_id;sensor_type;location;lat;lon;timestamp;temperature;humidity
8269;DHT22;4174;48.304;16.364;2023-05-07T00:01:54;15.30;99.90
8269;DHT22;4174;48.304;16.364;2023-05-07T00:07:58;15.30;99.90
8269;DHT22;4174;48.304;16.364;2023-05-07T00:14:02;15.30;99.90
8269;DHT22;4174;48.304;16.364;2023-05-07T00:20:07;15.30;99.90
8269;DHT22;4174;48.304;16.364;2023-05-07T00:26:12;15.20;99.90
8269;DHT22;4174;48.304;16.364;2023-05-07T00:32:15;15.00;99.90
8269;DHT22;4174;48.304;16.364;2023-05-07T00:38:20;15.00;99.90
8269;DHT22;4174;48.304;16.364;2023-05-07T00:44:24;15.00;99.90
8269;DHT22;4174;48.304;16.364;2023-05-07T00:50:28;14.90;99.90
8269;DHT22;4174;48.304;16.364;2023-05-07T00:56:30;14.60;99.90
8269;DHT22;4174;48.304;16.364;2023-05-07T01:02:34;14.30;99.90
8269;DHT22;4174;48.304;16.364;2023-05-07T01:08:36;14.40;99.90
8269;DHT22;4174;48.304;16.364;2023-05-07T01:14:40;14.50;99.90
8269;DHT22;4174;48.304;16.364;2023-05-07T01:20:43;14.50;99.90
8269;DHT22;4174;48.304;16.364;2023-05-07T01:26:47;14.30;99.90
8269;DHT22;4174;48.304;16.364;2023-05-07T01:32:52;14.40;99.90
8269;DHT22;4174;48.304;16.364;2023-05-07T01:38:59;14.40;99.90
8269;DHT22;4174;48.304;16.364;2023-05-07T01:45:03;14.40;99.90
8269;DHT22;4174;48.304;16.364;2023-05-07T01:51:08;14.40;99.90
8269;DHT22;4174;48.304;16.364;2023-05-07T01:57:11;14.50;99.90
8269;DHT22;4174;48.304;16.364;2023-05-07T02:03:14;14.50;99.90
8269;DHT22;4174;48.304;16.364;2023-05-07T02:09:19;14.40;99.90
8269;DHT22;4174;48.304;16.364;2023-05-07T02:15:23;14.40;99.90
8269;DHT22;4174;48.304;16.364;2023-05-07T02:21:26;14.40;99.90
8269;DHT22;4174;48.304;16.364;2023-05-07T02:27:30;14.40;99.90
8269;DHT22;4174;48.304;16.364;2023-05-07T02:33:34;14.40;99.90
8269;DHT22;4174;48.304;16.364;2023-05-07T02:39:38;14.40;99.90
8269;DHT22;4174;48.304;16.364;2023-05-07T02:45:42;14.40;99.90
8269;DHT22;4174;48.304;16.364;2023-05-07T02:51:46;14.20;99.90
8269;DHT22;4174;48.304;16.364;2023-05-07T02:57:49;14.10;99.90
8269;DHT22;4174;48.304;16.364;2023-05-07T03:03:53;14.10;99.90
8269;DHT22;4174;48.304;16.364;2023-05-07T03:09:56;14.00;99.90
8269;DHT22;4174;48.304;16.364;2023-05-07T03:16:00;13.90;99.90
8269;DHT22;4174;48.304;16.364;2023-05-07T03:22:03;13.90;99.90
8269;DHT22;4174;48.304;16.364;2023-05-07T03:28:08;13.90;99.90
8269;DHT22;4174;48.304;16.364;2023-05-07T03:34:13;13.90;99.90
8269;DHT22;4174;48.304;16.364;2023-05-07T03:40:17;14.00;99.90
8269;DHT22;4174;48.304;16.364;2023-05-07T03:46:20;13.90;99.90
8269;DHT22;4174;48.304;16.364;2023-05-07T03:52:24;14.00;99.90
8269;DHT22;4174;48.304;16.364;2023-05-07T03:58:28;14.00;99.90
8269;DHT22;4174;48.304;16.364;2023-05-07T04:04:32;14.00;99.90
8269;DHT22;4174;48.304;16.364;2023-05-07T04:10:36;14.00;99.90
8269;DHT22;4174;48.304;16.364;2023-05-07T04:16:39;14.00;99.90
8269;DHT22;4174;48.304;16.364;2023-05-07T04:22:44;14.10;99.90
8269;DHT22;4174;48.304;16.364;2023-05-07T04:28:47;14.20;99.90
8269;DHT22;4174;48.304;16.364;2023-05-07T04:34:51;14.40;99.90
8269;DHT22;4174;48.304;16.364;2023-05-07T04:40:55;14.60;99.90
8269;DHT22;4174;48.304;16.364;2023-05-07T04:46:59;14.60;99.90
8269;DHT22;4174;48.304;16.364;2023-05-07T04:53:03;14.90;99.90
8269;DHT22;4174;48.304;16.364;2023-05-07T04:59:08;15.30;99.90
8269;DHT22;4174;48.304;16.364;2023-05-07T05:05:11;15.50;99.90
8269;DHT22;4174;48.304;16.364;2023-05-07T05:11:15;15.80;99.90
8269;DHT22;4174;48.304;16.364;2023-05-07T05:17:19;16.50;99.90
8269;DHT22;4174;48.304;16.364;2023-05-07T05:23:23;16.90;99.90
8269;DHT22;4174;48.304;16.364;2023-05-07T05:29:27;17.10;99.90
8269;DHT22;4174;48.304;16.364;2023-05-07T05:35:31;17.50;99.90
8269;DHT22;4174;48.304;16.364;2023-05-07T05:41:35;17.90;99.90
8269;DHT22;4174;48.304;16.364;2023-05-07T05:47:38;18.30;99.90
8269;DHT22;4174;48.304;16.364;2023-05-07T05:53:42;19.00;99.90
8269;DHT22;4174;48.304;16.364;2023-05-07T05:59:46;19.90;99.90
8269;DHT22;4174;48.304;16.364;2023-05-07T06:05:49;20.20;99.90
8269;DHT22;4174;48.304;16.364;2023-05-07T06:11:53;20.20;99.90
8269;DHT22;4174;48.304;16.364;2023-05-07T06:17:59;20.40;99.90
8269;DHT22;4174;48.304;16.364;2023-05-07T06:30:34;21.70;99.90
8269;DHT22;4174;48.304;16.364;2023-05-07T06:36:38;22.00;99.90
8269;DHT22;4174;48.304;16.364;2023-05-07T06:42:42;22.20;99.90
8269;DHT22;4174;48.304;16.364;2023-05-07T06:48:46;22.70;99.90
8269;DHT22;4174;48.304;16.364;2023-05-07T06:54:49;22.50;99.90
8269;DHT22;4174;48.304;16.364;2023-05-07T07:00:53;21.50;99.90
8269;DHT22;4174;48.304;16.364;2023-05-07T07:06:57;20.60;99.90
8269;DHT22;4174;48.304;16.364;2023-05-07T07:13:02;20.00;99.90
8269;DHT22;4174;48.304;16.364;2023-05-07T07:19:06;19.90;99.90
8269;DHT22;4174;48.304;16.364;2023-05-07T07:25:10;19.90;99.90
8269;DHT22;4174;48.304;16.364;2023-05-07T07:31:13;19.90;99.90
8269;DHT22;4174;48.304;16.364;2023-05-07T07:37:16;19.30;99.90
8269;DHT22;4174;48.304;16.364;2023-05-07T07:43:20;19.30;99.90
8269;DHT22;4174;48.304;16.364;2023-05-07T07:49:24;19.20;99.90
8269;DHT22;4174;48.304;16.364;2023-05-07T07:55:28;20.10;99.90
8269;DHT22;4174;48.304;16.364;2023-05-07T08:01:32;20.20;99.90
8269;DHT22;4174;48.304;16.364;2023-05-07T08:07:36;20.20;99.90
8269;DHT22;4174;48.304;16.364;2023-05-07T08:13:39;21.10;99.90
8269;DHT22;4174;48.304;16.364;2023-05-07T08:19:43;22.60;99.90
8269;DHT22;4174;48.304;16.364;2023-05-07T08:25:47;23.40;99.90
8269;DHT22;4174;48.304;16.364;2023-05-07T08:31:50;23.20;99.90
8269;DHT22;4174;48.304;16.364;2023-05-07T08:37:54;24.40;99.90
8269;DHT22;4174;48.304;16.364;2023-05-07T08:43:58;24.70;99.90
8269;DHT22;4174;48.304;16.364;2023-05-07T08:50:01;24.20;99.40
8269;DHT22;4174;48.304;16.364;2023-05-07T08:56:06;23.60;98.30
8269;DHT22;4174;48.304;16.364;2023-05-07T09:02:08;24.50;98.10
8269;DHT22;4174;48.304;16.364;2023-05-07T09:08:14;24.00;99.90
8269;DHT22;4174;48.304;16.364;2023-05-07T09:14:16;24.00;99.90
8269;DHT22;4174;48.304;16.364;2023-05-07T09:20:20;24.30;97.10
8269;DHT22;4174;48.304;16.364;2023-05-07T09:26:24;23.60;99.10
8269;DHT22;4174;48.304;16.364;2023-05-07T09:32:28;24.30;99.90
8269;DHT22;4174;48.304;16.364;2023-05-07T09:38:32;24.30;99.90
8269;DHT22;4174;48.304;16.364;2023-05-07T09:44:35;24.10;98.00
8269;DHT22;4174;48.304;16.364;2023-05-07T09:50:42;23.60;98.60
8269;DHT22;4174;48.304;16.364;2023-05-07T09:56:44;23.30;99.30
8269;DHT22;4174;48.304;16.364;2023-05-07T10:02:49;23.20;99.30
8269;DHT22;4174;48.304;16.364;2023-05-07T10:08:51;23.30;99.90
8269;DHT22;4174;48.304;16.364;2023-05-07T10:14:53;22.80;99.90
8269;DHT22;4174;48.304;16.364;2023-05-07T10:20:57;22.40;99.90
8269;DHT22;4174;48.304;16.364;2023-05-07T10:27:00;22.20;99.90
8269;DHT22;4174;48.304;16.364;2023-05-07T10:33:03;22.20;99.90
8269;DHT22;4174;48.304;16.364;2023-05-07T10:39:05;22.50;99.90
8269;DHT22;4174;48.304;16.364;2023-05-07T10:45:13;22.70;99.90
8269;DHT22;4174;48.304;16.364;2023-05-07T10:51:19;23.40;98.40
8269;DHT22;4174;48.304;16.364;2023-05-07T10:57:37;23.50;98.10
8269;DHT22;4174;48.304;16.364;2023-05-07T11:04:23;24.60;97.70
8269;DHT22;4174;48.304;16.364;2023-05-07T11:10:15;25.20;92.30
8269;DHT22;4174;48.304;16.364;2023-05-07T11:16:19;25.40;97.00
8269;DHT22;4174;48.304;16.364;2023-05-07T11:22:39;25.80;94.20
8269;DHT22;4174;48.304;16.364;2023-05-07T11:28:43;25.50;94.30
8269;DHT22;4174;48.304;16.364;2023-05-07T11:34:46;26.10;89.70
8269;DHT22;4174;48.304;16.364;2023-05-07T11:40:50;25.70;91.20
8269;DHT22;4174;48.304;16.364;2023-05-07T11:46:56;25.90;93.00
8269;DHT22;4174;48.304;16.364;2023-05-07T11:53:00;25.50;95.80
8269;DHT22;4174;48.304;16.364;2023-05-07T11:59:04;24.50;90.90
8269;DHT22;4174;48.304;16.364;2023-05-07T12:05:08;25.20;92.00
8269;DHT22;4174;48.304;16.364;2023-05-07T12:11:14;26.50;93.10
8269;DHT22;4174;48.304;16.364;2023-05-07T12:17:15;26.10;92.90
8269;DHT22;4174;48.304;16.364;2023-05-07T12:23:19;26.20;85.70
8269;DHT22;4174;48.304;16.364;2023-05-07T12:29:21;24.60;81.80
8269;DHT22;4174;48.304;16.364;2023-05-07T12:35:28;24.20;86.60
8269;DHT22;4174;48.304;16.364;2023-05-07T12:41:43;23.80;90.80
8269;DHT22;4174;48.304;16.364;2023-05-07T12:47:39;24.30;90.60
8269;DHT22;4174;48.304;16.364;2023-05-07T12:53:42;24.20;89.50
8269;DHT22;4174;48.304;16.364;2023-05-07T12:59:45;25.00;91.40
8269;DHT22;4174;48.304;16.364;2023-05-07T13:05:48;25.20;90.90
8269;DHT22;4174;48.304;16.364;2023-05-07T13:11:52;25.40;91.40
8269;DHT22;4174;48.304;16.364;2023-05-07T13:17:56;24.50;89.70
8269;DHT22;4174;48.304;16.364;2023-05-07T13:24:00;24.50;89.70
8269;DHT22;4174;48.304;16.364;2023-05-07T13:30:06;24.50;84.90
8269;DHT22;4174;48.304;16.364;2023-05-07T13:36:11;25.10;88.50
8269;DHT22;4174;48.304;16.364;2023-05-07T13:42:15;25.00;88.70
8269;DHT22;4174;48.304;16.364;2023-05-07T13:48:19;24.40;89.90
8269;DHT22;4174;48.304;16.364;2023-05-07T13:54:23;25.20;90.20
8269;DHT22;4174;48.304;16.364;2023-05-07T14:00:28;24.10;76.20
8269;DHT22;4174;48.304;16.364;2023-05-07T14:06:30;23.60;82.40
8269;DHT22;4174;48.304;16.364;2023-05-07T14:12:35;24.00;83.80
8269;DHT22;4174;48.304;16.364;2023-05-07T14:18:39;23.00;88.00
8269;DHT22;4174;48.304;16.364;2023-05-07T14:24:43;22.40;91.80
8269;DHT22;4174;48.304;16.364;2023-05-07T14:30:46;21.70;95.20
8269;DHT22;4174;48.304;16.364;2023-05-07T14:36:50;21.30;95.00
8269;DHT22;4174;48.304;16.364;2023-05-07T14:42:54;21.10;94.00
8269;DHT22;4174;48.304;16.364;2023-05-07T14:48:58;21.00;96.90
8269;DHT22;4174;48.304;16.364;2023-05-07T14:55:02;20.90;95.30
8269;DHT22;4174;48.304;16.364;2023-05-07T15:01:07;20.80;95.40
8269;DHT22;4174;48.304;16.364;2023-05-07T15:07:11;20.80;97.60
8269;DHT22;4174;48.304;16.364;2023-05-07T15:13:14;20.50;97.50
8269;DHT22;4174;48.304;16.364;2023-05-07T15:19:18;20.40;96.20
8269;DHT22;4174;48.304;16.364;2023-05-07T15:25:21;20.40;96.10
8269;DHT22;4174;48.304;16.364;2023-05-07T15:31:25;20.00;96.20
8269;DHT22;4174;48.304;16.364;2023-05-07T15:37:30;19.70;97.10
8269;DHT22;4174;48.304;16.364;2023-05-07T15:43:32;19.50;99.30
8269;DHT22;4174;48.304;16.364;2023-05-07T15:49:35;19.00;98.60
8269;DHT22;4174;48.304;16.364;2023-05-07T15:55:39;18.90;98.80
8269;DHT22;4174;48.304;16.364;2023-05-07T16:01:42;18.70;98.20
8269;DHT22;4174;48.304;16.364;2023-05-07T16:07:45;18.50;99.80
8269;DHT22;4174;48.304;16.364;2023-05-07T16:13:49;18.30;99.10
8269;DHT22;4174;48.304;16.364;2023-05-07T16:19:53;17.80;99.90
8269;DHT22;4174;48.304;16.364;2023-05-07T16:25:56;17.70;99.90
8269;DHT22;4174;48.304;16.364;2023-05-07T16:32:01;17.40;99.90
8269;DHT22;4174;48.304;16.364;2023-05-07T16:38:04;17.30;99.90
8269;DHT22;4174;48.304;16.364;2023-05-07T16:44:08;16.60;99.90
8269;DHT22;4174;48.304;16.364;2023-05-07T16:50:12;16.50;99.90
8269;DHT22;4174;48.304;16.364;2023-05-07T16:56:15;15.90;99.90
8269;DHT22;4174;48.304;16.364;2023-05-07T17:02:19;15.90;99.90
8269;DHT22;4174;48.304;16.364;2023-05-07T17:08:23;16.40;99.90
8269;DHT22;4174;48.304;16.364;2023-05-07T17:14:26;16.60;99.90
8269;DHT22;4174;48.304;16.364;2023-05-07T17:27:39;16.60;99.90
8269;DHT22;4174;48.304;16.364;2023-05-07T17:47:27;16.30;99.90
8269;DHT22;4174;48.304;16.364;2023-05-07T17:53:31;16.10;99.90
8269;DHT22;4174;48.304;16.364;2023-05-07T17:59:36;15.70;99.90
8269;DHT22;4174;48.304;16.364;2023-05-07T18:05:39;15.70;99.90
8269;DHT22;4174;48.304;16.364;2023-05-07T18:11:43;15.50;99.90
8269;DHT22;4174;48.304;16.364;2023-05-07T18:17:47;15.20;99.90
8269;DHT22;4174;48.304;16.364;2023-05-07T18:23:50;14.90;99.90
8269;DHT22;4174;48.304;16.364;2023-05-07T18:29:54;14.50;99.90
8269;DHT22;4174;48.304;16.364;2023-05-07T18:35:57;14.00;99.90
8269;DHT22;4174;48.304;16.364;2023-05-07T18:42:00;14.00;99.90
8269;DHT22;4174;48.304;16.364;2023-05-07T18:48:04;13.90;99.90
8269;DHT22;4174;48.304;16.364;2023-05-07T18:54:08;13.30;99.90
8269;DHT22;4174;48.304;16.364;2023-05-07T19:00:13;13.20;99.90
8269;DHT22;4174;48.304;16.364;2023-05-07T19:06:18;12.80;99.90
8269;DHT22;4174;48.304;16.364;2023-05-07T19:12:22;12.90;99.90
8269;DHT22;4174;48.304;16.364;2023-05-07T19:18:26;13.10;99.90
8269;DHT22;4174;48.304;16.364;2023-05-07T19:24:30;13.00;99.90
8269;DHT22;4174;48.304;16.364;2023-05-07T19:30:36;13.00;99.90
8269;DHT22;4174;48.304;16.364;2023-05-07T19:36:36;12.50;99.90
8269;DHT22;4174;48.304;16.364;2023-05-07T19:42:40;12.60;99.90
8269;DHT22;4174;48.304;16.364;2023-05-07T19:48:44;12.50;99.90
8269;DHT22;4174;48.304;16.364;2023-05-07T19:54:47;12.40;99.90
8269;DHT22;4174;48.304;16.364;2023-05-07T20:00:51;12.50;99.90
8269;DHT22;4174;48.304;16.364;2023-05-07T20:06:55;12.50;99.90
8269;DHT22;4174;48.304;16.364;2023-05-07T20:12:58;12.40;99.90
8269;DHT22;4174;48.304;16.364;2023-05-07T20:19:01;12.20;99.90
8269;DHT22;4174;48.304;16.364;2023-05-07T20:25:06;12.20;99.90
8269;DHT22;4174;48.304;16.364;2023-05-07T20:31:11;12.10;99.90
8269;DHT22;4174;48.304;16.364;2023-05-07T20:37:15;12.20;99.90
8269;DHT22;4174;48.304;16.364;2023-05-07T20:43:19;12.00;99.90
8269;DHT22;4174;48.304;16.364;2023-05-07T20:49:23;12.10;99.90
8269;DHT22;4174;48.304;16.364;2023-05-07T20:55:26;11.80;99.90
8269;DHT22;4174;48.304;16.364;2023-05-07T21:01:30;11.60;99.90
8269;DHT22;4174;48.304;16.364;2023-05-07T21:07:34;11.40;99.90
8269;DHT22;4174;48.304;16.364;2023-05-07T21:13:37;11.30;99.90
8269;DHT22;4174;48.304;16.364;2023-05-07T21:19:41;11.30;99.90
8269;DHT22;4174;48.304;16.364;2023-05-07T21:25:44;11.30;99.90
8269;DHT22;4174;48.304;16.364;2023-05-07T21:31:47;11.30;99.90
8269;DHT22;4174;48.304;16.364;2023-05-07T21:37:51;11.30;99.90
8269;DHT22;4174;48.304;16.364;2023-05-07T21:43:54;11.30;99.90
8269;DHT22;4174;48.304;16.364;2023-05-07T21:49:59;11.30;99.90
8269;DHT22;4174;48.304;16.364;2023-05-07T21:56:01;11.20;99.90
8269;DHT22;4174;48.304;16.364;2023-05-07T22:02:04;11.00;99.90
8269;DHT22;4174;48.304;16.364;2023-05-07T22:08:09;10.90;99.90
8269;DHT22;4174;48.304;16.364;2023-05-07T22:14:12;10.80;99.90
8269;DHT22;4174;48.304;16.364;2023-05-07T22:20:16;10.80;99.90
8269;DHT22;4174;48.304;16.364;2023-05-07T22:26:19;10.70;99.90
8269;DHT22;4174;48.304;16.364;2023-05-07T22:32:23;10.70;99.90
8269;DHT22;4174;48.304;16.364;2023-05-07T22:38:27;10.70;99.90
8269;DHT22;4174;48.304;16.364;2023-05-07T22:44:30;10.80;99.90
8269;DHT22;4174;48.304;16.364;2023-05-07T22:50:36;10.90;99.90
8269;DHT22;4174;48.304;16.364;2023-05-07T22:56:39;10.50;99.90
8269;DHT22;4174;48.304;16.364;2023-05-07T23:02:43;10.50;99.90
8269;DHT22;4174;48.304;16.364;2023-05-07T23:08:46;10.40;99.90
8269;DHT22;4174;48.304;16.364;2023-05-07T23:14:50;10.50;99.90
8269;DHT22;4174;48.304;16.364;2023-05-07T23:20:54;10.50;99.90
8269;DHT22;4174;48.304;16.364;2023-05-07T23:26:58;10.50;99.90
8269;DHT22;4174;48.304;16.364;2023-05-07T23:33:01;10.40;99.90
8269;DHT22;4174;48.304;16.364;2023-05-07T23:39:05;10.50;99.90
8269;DHT22;4174;48.304;16.364;2023-05-07T23:45:10;10.60;99.90
8269;DHT22;4174;48.304;16.364;2023-05-07T23:51:14;10.50;99.90
8269;DHT22;4174;48.304;16.364;2023-05-07T23:57:18;10.80;99.90
